createdAt,value
2023-04-02T00:00:57.918Z,947.67
2023-04-02T00:03:57.297Z,947.7
2023-04-02T00:06:57.215Z,947.66
2023-04-02T00:09:57.489Z,947.63
2023-04-02T00:12:57.095Z,947.73
2023-04-02T00:15:58.222Z,947.76
2023-04-02T00:18:57.530Z,947.82
2023-04-02T00:21:57.548Z,947.82
2023-04-02T00:24:56.931Z,947.79
2023-04-02T00:27:57.139Z,947.93
2023-04-02T00:30:57.330Z,947.89
2023-04-02T00:33:57.169Z,947.88
2023-04-02T00:36:57.945Z,947.89
2023-04-02T00:39:57.774Z,947.91
2023-04-02T00:42:57.024Z,947.89
2023-04-02T00:45:57.701Z,947.87
2023-04-02T00:48:56.756Z,947.91
2023-04-02T00:51:56.775Z,947.88
2023-04-02T00:54:56.746Z,947.77
2023-04-02T00:57:57.198Z,947.85
2023-04-02T01:00:57.717Z,947.8
2023-04-02T01:03:56.929Z,947.82
2023-04-02T01:06:57.444Z,947.81
2023-04-02T01:09:57.157Z,947.88
2023-04-02T01:12:57.423Z,947.9
2023-04-02T01:15:57.996Z,947.82
2023-04-02T01:18:57.396Z,947.78
2023-04-02T01:21:56.601Z,947.74
2023-04-02T01:24:57.328Z,947.8
2023-04-02T01:27:57.148Z,947.7
2023-04-02T01:30:57.396Z,947.75
2023-04-02T01:33:57.417Z,947.74
2023-04-02T01:36:57.822Z,947.74
2023-04-02T01:39:57.797Z,947.77
2023-04-02T01:42:57.066Z,947.85
2023-04-02T01:45:56.957Z,947.85
2023-04-02T01:48:56.825Z,947.9
2023-04-02T01:51:57.155Z,948.0
2023-04-02T01:54:57.356Z,947.98
2023-04-02T01:57:56.870Z,947.94
2023-04-02T02:00:57.670Z,948.0
2023-04-02T02:03:56.863Z,948.04
2023-04-02T02:07:00.101Z,948.15
2023-04-02T02:09:57.528Z,948.19
2023-04-02T02:12:56.922Z,948.16
2023-04-02T02:15:57.480Z,948.19
2023-04-02T02:18:56.645Z,948.38
2023-04-02T02:21:57.229Z,948.31
2023-04-02T02:24:57.356Z,948.29
2023-04-02T02:27:57.636Z,948.34
2023-04-02T02:30:57.599Z,948.38
2023-04-02T02:33:56.929Z,948.39
2023-04-02T02:36:57.894Z,948.49
2023-04-02T02:39:56.641Z,948.41
2023-04-02T02:42:56.673Z,948.47
2023-04-02T02:45:57.423Z,948.55
2023-04-02T02:48:56.973Z,948.64
2023-04-02T02:51:56.936Z,948.61
2023-04-02T02:54:57.684Z,948.55
2023-04-02T02:57:56.893Z,948.58
2023-04-02T03:00:57.736Z,948.61
2023-04-02T03:03:56.947Z,948.65
2023-04-02T03:06:57.114Z,948.6
2023-04-02T03:09:56.984Z,948.77
2023-04-02T03:12:57.902Z,948.72
2023-04-02T03:15:57.176Z,948.74
2023-04-02T03:18:57.700Z,948.75
2023-04-02T03:21:57.108Z,948.75
2023-04-02T03:24:57.699Z,948.81
2023-04-02T03:27:57.617Z,948.9
2023-04-02T03:30:57.200Z,948.91
2023-04-02T03:33:57.533Z,948.97
2023-04-02T03:36:57.212Z,949.06
2023-04-02T03:39:57.150Z,949.11
2023-04-02T03:42:57.388Z,949.03
2023-04-02T03:45:57.481Z,949.14
2023-04-02T03:48:57.072Z,949.14
2023-04-02T03:51:57.162Z,949.16
2023-04-02T03:54:57.949Z,949.21
2023-04-02T03:57:57.194Z,949.16
2023-04-02T04:00:57.886Z,949.13
2023-04-02T04:03:57.536Z,949.24
2023-04-02T04:06:56.994Z,949.33
2023-04-02T04:09:57.049Z,949.42
2023-04-02T04:12:57.790Z,949.37
2023-04-02T04:15:57.904Z,949.48
2023-04-02T04:18:56.959Z,949.47
2023-04-02T04:21:57.340Z,949.49
2023-04-02T04:24:56.973Z,949.51
2023-04-02T04:28:00.093Z,949.6
2023-04-02T04:30:57.766Z,949.7
2023-04-02T04:33:57.725Z,949.65
2023-04-02T04:36:56.790Z,949.7
2023-04-02T04:39:57.462Z,949.75
2023-04-02T04:42:57.023Z,949.81
2023-04-02T04:45:57.772Z,949.78
2023-04-02T04:48:57.392Z,949.81
2023-04-02T04:51:57.817Z,949.82
2023-04-02T04:54:57.257Z,949.88
2023-04-02T04:57:57.280Z,949.91
2023-04-02T05:00:57.934Z,949.96
2023-04-02T05:03:57.444Z,949.93
2023-04-02T05:06:57.684Z,950.03
2023-04-02T05:09:57.208Z,950.02
2023-04-02T05:12:57.187Z,950.09
2023-04-02T05:15:58.099Z,950.13
2023-04-02T05:18:57.694Z,950.14
2023-04-02T05:21:57.015Z,950.15
2023-04-02T05:24:57.676Z,950.16
2023-04-02T05:27:57.422Z,950.2
2023-04-02T05:30:57.841Z,950.27
2023-04-02T05:33:57.635Z,950.23
2023-04-02T05:36:56.777Z,950.29
2023-04-02T05:39:57.369Z,950.38
2023-04-02T05:42:56.889Z,950.41
2023-04-02T05:45:57.889Z,950.56
2023-04-02T05:48:57.499Z,950.46
2023-04-02T05:51:57.719Z,950.49
2023-04-02T05:54:57.284Z,950.48
2023-04-02T05:58:21.129Z,950.52
2023-04-02T06:00:57.373Z,950.57
2023-04-02T06:03:57.544Z,950.63
2023-04-02T06:06:57.351Z,950.72
2023-04-02T06:09:56.895Z,950.72
2023-04-02T06:12:57.249Z,950.78
2023-04-02T06:15:58.004Z,950.83
2023-04-02T06:18:57.259Z,950.77
2023-04-02T06:21:58.128Z,950.82
2023-04-02T06:24:57.055Z,950.85
2023-04-02T06:27:57.850Z,950.83
2023-04-02T06:30:57.580Z,950.94
2023-04-02T06:33:57.059Z,950.95
2023-04-02T06:36:57.425Z,951.0
2023-04-02T06:39:57.551Z,951.06
2023-04-02T06:42:57.879Z,951.13
2023-04-02T06:45:57.554Z,951.17
2023-04-02T06:48:57.030Z,951.2
2023-04-02T06:51:57.401Z,951.29
2023-04-02T06:54:56.969Z,951.36
2023-04-02T06:57:57.767Z,951.35
2023-04-02T07:00:57.677Z,951.42
2023-04-02T07:03:56.929Z,951.46
2023-04-02T07:06:57.730Z,951.47
2023-04-02T07:09:57.702Z,951.49
2023-04-02T07:12:57.484Z,951.57
2023-04-02T07:15:57.756Z,951.64
2023-04-02T07:18:57.115Z,951.7
2023-04-02T07:21:57.492Z,951.74
2023-04-02T07:24:57.612Z,951.73
2023-04-02T07:27:56.789Z,951.71
2023-04-02T07:30:57.537Z,951.89
2023-04-02T07:33:58.019Z,951.82
2023-04-02T07:36:58.022Z,951.83
2023-04-02T07:39:57.755Z,951.92
2023-04-02T07:42:57.105Z,951.96
2023-04-02T07:45:56.867Z,951.93
2023-04-02T07:48:57.220Z,951.97
2023-04-02T07:51:57.957Z,952.06
2023-04-02T07:54:57.196Z,952.14
2023-04-02T07:57:57.575Z,952.18
2023-04-02T08:00:58.358Z,952.12
2023-04-02T08:03:57.159Z,952.15
2023-04-02T08:06:57.585Z,952.29
2023-04-02T08:09:58.025Z,952.27
2023-04-02T08:13:02.621Z,952.28
2023-04-02T08:15:56.955Z,952.33
2023-04-02T08:18:56.878Z,952.24
2023-04-02T08:21:57.002Z,952.31
2023-04-02T08:24:56.782Z,952.46
2023-04-02T08:27:57.050Z,952.44
2023-04-02T08:30:57.272Z,952.56
2023-04-02T08:33:57.426Z,952.57
2023-04-02T08:36:57.190Z,952.54
2023-04-02T08:39:57.492Z,952.71
2023-04-02T08:42:57.148Z,952.68
2023-04-02T08:45:57.383Z,952.68
2023-04-02T08:48:58.085Z,952.65
2023-04-02T08:51:58.025Z,952.83
2023-04-02T08:54:57.112Z,952.86
2023-04-02T08:57:57.658Z,952.86
2023-04-02T09:00:57.152Z,952.93
2023-04-02T09:03:57.314Z,952.93
2023-04-02T09:06:57.182Z,953.04
2023-04-02T09:09:57.237Z,953.02
2023-04-02T09:12:57.746Z,953.01
2023-04-02T09:15:57.440Z,953.04
2023-04-02T09:18:57.996Z,953.15
2023-04-02T09:21:57.580Z,953.19
2023-04-02T09:24:57.671Z,953.2
2023-04-02T09:27:56.778Z,953.18
2023-04-02T09:30:57.843Z,953.3
2023-04-02T09:33:57.858Z,953.31
2023-04-02T09:36:56.948Z,953.38
2023-04-02T09:39:57.337Z,953.38
2023-04-02T09:42:57.356Z,953.48
2023-04-02T09:45:57.858Z,953.51
2023-04-02T09:48:57.576Z,953.54
2023-04-02T09:51:57.430Z,953.51
2023-04-02T09:54:57.302Z,953.57
2023-04-02T09:57:56.588Z,953.59
2023-04-02T10:00:57.502Z,953.6
2023-04-02T10:03:57.848Z,953.63
2023-04-02T10:06:57.477Z,953.66
2023-04-02T10:09:56.918Z,953.59
2023-04-02T10:12:57.673Z,953.69
2023-04-02T10:15:57.871Z,953.71
2023-04-02T10:18:56.943Z,953.85
2023-04-02T10:21:56.866Z,953.78
2023-04-02T10:24:56.870Z,953.74
2023-04-02T10:27:57.518Z,953.82
2023-04-02T10:30:57.359Z,953.76
2023-04-02T10:33:57.485Z,953.7
2023-04-02T10:36:57.266Z,953.85
2023-04-02T10:39:57.499Z,953.82
2023-04-02T10:42:57.167Z,953.82
2023-04-02T10:45:57.019Z,953.92
2023-04-02T10:48:57.446Z,953.96
2023-04-02T10:51:57.352Z,954.04
2023-04-02T10:54:56.941Z,954.02
2023-04-02T10:57:56.828Z,953.98
2023-04-02T11:00:57.811Z,954.08
2023-04-02T11:04:15.209Z,954.07
2023-04-02T11:07:07.135Z,954.05
2023-04-02T11:09:58.124Z,954.04
2023-04-02T11:12:57.373Z,954.09
2023-04-02T11:15:57.906Z,954.09
2023-04-02T11:18:57.189Z,954.09
2023-04-02T11:22:00.274Z,954.03
2023-04-02T11:24:57.008Z,954.14
2023-04-02T11:28:17.337Z,954.22
2023-04-02T11:30:57.826Z,954.32
2023-04-02T11:33:57.772Z,954.41
2023-04-02T11:36:57.494Z,954.42
2023-04-02T11:39:56.859Z,954.37
2023-04-02T11:42:57.507Z,954.38
2023-04-02T11:45:58.070Z,954.49
2023-04-02T11:48:57.625Z,954.62
2023-04-02T11:52:10.865Z,954.46
2023-04-02T11:54:56.753Z,954.54
2023-04-02T11:57:57.152Z,954.63
2023-04-02T12:00:57.693Z,954.61
2023-04-02T12:03:57.709Z,954.61
2023-04-02T12:06:57.061Z,954.65
2023-04-02T12:09:58.189Z,954.59
2023-04-02T12:12:57.251Z,954.63
2023-04-02T12:15:57.069Z,954.69
2023-04-02T12:18:58.057Z,954.74
2023-04-02T12:21:56.790Z,954.76
2023-04-02T12:24:57.023Z,954.73
2023-04-02T12:27:57.289Z,954.79
2023-04-02T12:30:57.751Z,954.83
2023-04-02T12:33:57.169Z,954.86
2023-04-02T12:36:57.610Z,954.97
2023-04-02T12:39:57.367Z,954.92
2023-04-02T12:42:57.772Z,955.03
2023-04-02T12:45:57.819Z,955.08
2023-04-02T12:48:57.583Z,955.07
2023-04-02T12:51:57.827Z,955.07
2023-04-02T12:54:56.823Z,955.21
2023-04-02T12:57:57.178Z,955.25
2023-04-02T13:00:57.650Z,955.25
2023-04-02T13:03:57.814Z,955.44
2023-04-02T13:06:57.554Z,955.3
2023-04-02T13:09:57.455Z,955.36
2023-04-02T13:12:57.535Z,955.37
2023-04-02T13:15:56.868Z,955.46
2023-04-02T13:18:57.179Z,955.47
2023-04-02T13:21:57.735Z,955.56
2023-04-02T13:24:57.372Z,955.56
2023-04-02T13:27:57.858Z,955.53
2023-04-02T13:30:57.528Z,955.57
2023-04-02T13:33:57.778Z,955.58
2023-04-02T13:36:57.911Z,955.59
2023-04-02T13:39:57.633Z,955.62
2023-04-02T13:42:56.963Z,955.61
2023-04-02T13:45:57.978Z,955.72
2023-04-02T13:48:56.967Z,955.75
2023-04-02T13:51:57.015Z,955.76
2023-04-02T13:54:57.968Z,955.76
2023-04-02T13:57:58.022Z,955.82
2023-04-02T14:00:58.023Z,955.85
2023-04-02T14:03:56.926Z,955.95
2023-04-02T14:06:57.204Z,956.03
2023-04-02T14:09:57.369Z,956.03
2023-04-02T14:12:57.524Z,955.98
2023-04-02T14:15:57.585Z,956.03
2023-04-02T14:18:56.658Z,956.12
2023-04-02T14:21:57.514Z,956.14
2023-04-02T14:24:57.616Z,956.14
2023-04-02T14:27:57.128Z,956.19
2023-04-02T14:30:56.956Z,956.24
2023-04-02T14:33:57.033Z,956.33
2023-04-02T14:36:57.371Z,956.3
2023-04-02T14:39:57.866Z,956.32
2023-04-02T14:42:57.386Z,956.42
2023-04-02T14:45:58.052Z,956.42
2023-04-02T14:48:57.244Z,956.43
2023-04-02T14:51:58.051Z,956.43
2023-04-02T14:54:57.044Z,956.48
2023-04-02T14:57:57.305Z,956.48
2023-04-02T15:00:57.279Z,956.55
2023-04-02T15:03:58.123Z,956.56
2023-04-02T15:06:57.393Z,956.64
2023-04-02T15:09:57.831Z,956.64
2023-04-02T15:12:57.635Z,956.73
2023-04-02T15:15:58.232Z,956.78
2023-04-02T15:18:57.424Z,956.82
2023-04-02T15:22:01.105Z,956.81
2023-04-02T15:24:57.719Z,956.77
2023-04-02T15:27:56.862Z,956.85
2023-04-02T15:30:56.922Z,956.85
2023-04-02T15:33:57.022Z,956.84
2023-04-02T15:36:56.552Z,956.92
2023-04-02T15:39:57.575Z,956.92
2023-04-02T15:42:57.369Z,956.97
2023-04-02T15:45:57.443Z,957.04
2023-04-02T15:48:58.000Z,957.02
2023-04-02T15:51:57.410Z,957.16
2023-04-02T15:54:57.016Z,957.11
2023-04-02T15:57:57.382Z,957.22
2023-04-02T16:00:57.544Z,957.23
2023-04-02T16:03:58.029Z,957.33
2023-04-02T16:06:56.979Z,957.32
2023-04-02T16:09:57.298Z,957.35
2023-04-02T16:12:57.180Z,957.37
2023-04-02T16:15:57.606Z,957.33
2023-04-02T16:18:57.644Z,957.52
2023-04-02T16:21:57.059Z,957.48
2023-04-02T16:24:57.813Z,957.65
2023-04-02T16:27:56.890Z,957.62
2023-04-02T16:30:57.287Z,957.68
2023-04-02T16:33:57.152Z,957.65
2023-04-02T16:36:57.391Z,957.68
2023-04-02T16:39:57.234Z,957.73
2023-04-02T16:42:57.516Z,957.85
2023-04-02T16:45:57.657Z,957.86
2023-04-02T16:48:57.077Z,957.92
2023-04-02T16:51:57.934Z,957.92
2023-04-02T16:54:57.294Z,958.02
2023-04-02T16:57:57.173Z,958.09
2023-04-02T17:00:57.831Z,958.1
2023-04-02T17:03:57.041Z,958.19
2023-04-02T17:06:57.632Z,958.22
2023-04-02T17:09:57.692Z,958.28
2023-04-02T17:12:57.245Z,958.41
2023-04-02T17:15:57.086Z,958.34
2023-04-02T17:18:57.006Z,958.46
2023-04-02T17:21:57.505Z,958.46
2023-04-02T17:24:57.945Z,958.59
2023-04-02T17:27:57.650Z,958.69
2023-04-02T17:30:57.025Z,958.7
2023-04-02T17:33:57.763Z,958.86
2023-04-02T17:36:58.025Z,958.86
2023-04-02T17:39:56.971Z,958.87
2023-04-02T17:42:57.843Z,958.99
2023-04-02T17:45:57.582Z,959.01
2023-04-02T17:48:57.111Z,959.07
2023-04-02T17:51:57.568Z,959.14
2023-04-02T17:54:57.097Z,959.16
2023-04-02T17:57:57.575Z,959.25
2023-04-02T18:00:57.682Z,959.25
2023-04-02T18:03:57.075Z,959.24
2023-04-02T18:06:57.897Z,959.17
2023-04-02T18:09:57.783Z,959.31
2023-04-02T18:12:57.721Z,959.31
2023-04-02T18:15:57.314Z,959.45
2023-04-02T18:18:58.154Z,959.47
2023-04-02T18:21:56.924Z,959.46
2023-04-02T18:24:57.110Z,959.58
2023-04-02T18:27:57.802Z,959.64
2023-04-02T18:31:00.234Z,959.67
2023-04-02T18:33:57.173Z,959.7
2023-04-02T18:36:57.076Z,959.79
2023-04-02T18:39:58.060Z,959.75
2023-04-02T18:42:57.374Z,959.96
2023-04-02T18:45:58.135Z,959.88
2023-04-02T18:48:57.593Z,960.04
2023-04-02T18:51:57.245Z,960.09
2023-04-02T18:54:57.859Z,960.15
2023-04-02T18:57:57.656Z,960.33
2023-04-02T19:01:25.515Z,960.32
2023-04-02T19:03:57.227Z,960.33
2023-04-02T19:06:58.005Z,960.34
2023-04-02T19:09:57.516Z,960.47
2023-04-02T19:12:57.061Z,960.64
2023-04-02T19:15:58.347Z,960.62
2023-04-02T19:18:57.695Z,960.65
2023-04-02T19:21:57.157Z,960.73
2023-04-02T19:24:57.158Z,960.72
2023-04-02T19:27:57.236Z,960.78
2023-04-02T19:30:58.211Z,960.78
2023-04-02T19:33:57.415Z,960.92
2023-04-02T19:36:57.211Z,961.0
2023-04-02T19:39:57.223Z,960.92
2023-04-02T19:42:57.391Z,961.01
2023-04-02T19:45:57.168Z,961.02
2023-04-02T19:48:57.459Z,961.05
2023-04-02T19:51:57.722Z,961.08
2023-04-02T19:54:58.068Z,961.11
2023-04-02T19:58:04.451Z,961.14
2023-04-02T20:00:57.963Z,961.13
2023-04-02T20:03:58.033Z,961.23
2023-04-02T20:06:57.286Z,961.14
2023-04-02T20:09:57.505Z,961.22
2023-04-02T20:12:57.084Z,961.28
2023-04-02T20:15:57.919Z,961.33
2023-04-02T20:18:57.442Z,961.26
2023-04-02T20:21:57.542Z,961.36
2023-04-02T20:24:57.490Z,961.36
2023-04-02T20:27:57.794Z,961.46
2023-04-02T20:30:57.650Z,961.36
2023-04-02T20:33:57.574Z,961.53
2023-04-02T20:36:58.039Z,961.49
2023-04-02T20:39:57.504Z,961.55
2023-04-02T20:42:58.074Z,961.65
2023-04-02T20:45:57.191Z,961.61
2023-04-02T20:48:57.074Z,961.7
2023-04-02T20:51:57.702Z,961.78
2023-04-02T20:54:57.334Z,961.76
2023-04-02T20:57:56.998Z,961.78
2023-04-02T21:00:57.739Z,961.86
2023-04-02T21:03:57.175Z,961.81
2023-04-02T21:06:57.894Z,961.87
2023-04-02T21:09:57.544Z,961.87
2023-04-02T21:12:56.879Z,961.96
2023-04-02T21:15:57.205Z,961.99
2023-04-02T21:18:57.069Z,961.97
2023-04-02T21:21:57.372Z,961.97
2023-04-02T21:24:57.451Z,961.92
2023-04-02T21:27:57.237Z,961.9
2023-04-02T21:30:58.284Z,962.02
2023-04-02T21:33:57.646Z,962.1
2023-04-02T21:36:57.442Z,962.06
2023-04-02T21:39:57.255Z,962.12
2023-04-02T21:42:57.419Z,962.11
2023-04-02T21:45:57.237Z,962.08
2023-04-02T21:48:57.598Z,962.16
2023-04-02T21:51:57.441Z,962.15
2023-04-02T21:54:57.730Z,962.19
2023-04-02T21:57:57.317Z,962.28
2023-04-02T22:00:57.514Z,962.34
2023-04-02T22:03:57.347Z,962.4
2023-04-02T22:06:56.855Z,962.36
2023-04-02T22:09:57.161Z,962.36
2023-04-02T22:12:56.978Z,962.32
2023-04-02T22:15:57.098Z,962.34
2023-04-02T22:18:57.314Z,962.32
2023-04-02T22:21:56.941Z,962.4
2023-04-02T22:24:57.216Z,962.37
2023-04-02T22:27:57.861Z,962.46
2023-04-02T22:30:57.742Z,962.39
2023-04-02T22:33:57.543Z,962.35
2023-04-02T22:36:58.027Z,962.42
2023-04-02T22:39:57.565Z,962.43
2023-04-02T22:42:57.659Z,962.45
2023-04-02T22:45:57.678Z,962.49
2023-04-02T22:48:57.580Z,962.46
2023-04-02T22:51:57.065Z,962.48
2023-04-02T22:54:57.545Z,962.48
2023-04-02T22:57:56.777Z,962.53
2023-04-02T23:00:57.642Z,962.58
2023-04-02T23:03:57.586Z,962.57
2023-04-02T23:06:57.718Z,962.65
2023-04-02T23:09:57.070Z,962.65
2023-04-02T23:12:57.513Z,962.56
2023-04-02T23:15:56.727Z,962.6
2023-04-02T23:18:57.358Z,962.7
2023-04-02T23:21:57.320Z,962.58
2023-04-02T23:24:57.835Z,962.51
2023-04-02T23:27:57.086Z,962.48
2023-04-02T23:31:15.101Z,962.57
2023-04-02T23:33:57.358Z,962.56
2023-04-02T23:36:56.922Z,962.5
2023-04-02T23:39:57.165Z,962.6
2023-04-02T23:42:57.677Z,962.54
2023-04-02T23:45:57.748Z,962.45
2023-04-02T23:48:57.124Z,962.53
2023-04-02T23:51:57.370Z,962.45
2023-04-02T23:54:57.471Z,962.45
2023-04-02T23:57:57.665Z,962.4
